createdAt,value
2018-10-17T00:01:51.577Z,101500.18
2018-10-17T00:06:44.217Z,101502.70
2018-10-17T00:11:37.213Z,101494.59
2018-10-17T00:16:29.944Z,101486.77
2018-10-17T00:21:22.662Z,101476.05
2018-10-17T00:26:15.449Z,101488.08
2018-10-17T00:31:08.267Z,101491.27
2018-10-17T00:36:00.833Z,101486.09
2018-10-17T00:40:53.583Z,101484.44
2018-10-17T00:45:46.253Z,101485.63
2018-10-17T00:50:38.993Z,101485.44
2018-10-17T00:55:31.811Z,101482.88
2018-10-17T01:00:24.514Z,101482.98
2018-10-17T01:05:17.378Z,101480.30
2018-10-17T01:10:10.194Z,101472.73
2018-10-17T01:15:02.934Z,101476.40
2018-10-17T01:19:55.589Z,101471.97
2018-10-17T01:24:48.302Z,101472.96
2018-10-17T01:29:40.925Z,101463.03
2018-10-17T01:34:33.569Z,101466.56
2018-10-17T01:39:26.228Z,101475.19
2018-10-17T01:44:18.855Z,101472.66
2018-10-17T01:49:11.495Z,101475.69
2018-10-17T01:54:05.195Z,101478.48
2018-10-17T01:58:58.078Z,101477.95
2018-10-17T02:03:50.747Z,101482.41
2018-10-17T02:08:43.366Z,101476.75
2018-10-17T02:13:36.009Z,101471.13
2018-10-17T02:18:28.621Z,101474.66
2018-10-17T02:23:21.277Z,101480.50
2018-10-17T02:28:13.937Z,101473.22
2018-10-17T02:33:06.605Z,101479.45
2018-10-17T02:37:59.257Z,101469.52
2018-10-17T02:42:52.009Z,101474.27
2018-10-17T02:47:44.680Z,101470.04
2018-10-17T02:52:38.886Z,101472.30
2018-10-17T02:57:31.562Z,101475.55
2018-10-17T03:02:24.249Z,101469.49
2018-10-17T03:07:16.949Z,101467.53
2018-10-17T03:12:09.622Z,101469.05
2018-10-17T03:17:02.667Z,101471.81
2018-10-17T03:21:55.230Z,101469.88
2018-10-17T03:26:47.950Z,101473.97
2018-10-17T03:31:40.760Z,101474.66
2018-10-17T03:36:33.405Z,101481.44
2018-10-17T03:41:26.055Z,101477.15
2018-10-17T03:46:18.738Z,101474.52
2018-10-17T03:51:11.631Z,101478.78
2018-10-17T03:56:04.444Z,101483.04
2018-10-17T04:00:57.110Z,101488.98
2018-10-17T04:05:49.756Z,101490.70
2018-10-17T04:10:42.557Z,101493.73
2018-10-17T04:15:35.280Z,101499.89
2018-10-17T04:20:27.900Z,101497.62
2018-10-17T04:25:20.595Z,101499.02
2018-10-17T04:30:13.343Z,101497.67
2018-10-17T04:35:06.022Z,101499.60
2018-10-17T04:39:58.681Z,101501.78
2018-10-17T04:44:51.387Z,101507.48
2018-10-17T04:49:44.235Z,101494.83
2018-10-17T04:54:36.895Z,101502.30
2018-10-17T04:59:29.596Z,101504.84
2018-10-17T05:04:22.359Z,101514.05
2018-10-17T05:09:15.250Z,101517.63
2018-10-17T05:14:08.032Z,101522.81
2018-10-17T05:19:00.652Z,101526.69
2018-10-17T05:23:53.424Z,101529.08
2018-10-17T05:28:46.238Z,101528.87
2018-10-17T05:33:38.866Z,101531.77
2018-10-17T05:38:31.581Z,101531.36
2018-10-17T05:43:27.240Z,101524.11
2018-10-17T05:48:20.147Z,101538.20
2018-10-17T05:53:13.160Z,101528.77
2018-10-17T05:58:06.950Z,101536.64
2018-10-17T06:02:59.784Z,101529.59
2018-10-17T06:07:52.478Z,101529.19
2018-10-17T06:12:45.390Z,101536.66
2018-10-17T06:17:38.120Z,101551.20
2018-10-17T06:22:32.890Z,101555.66
2018-10-17T06:27:25.789Z,101549.34
2018-10-17T06:32:19.601Z,101557.80
2018-10-17T06:37:12.247Z,101561.12
2018-10-17T06:42:05.395Z,101571.65
2018-10-17T06:46:58.204Z,101570.05
2018-10-17T06:51:52.143Z,101571.67
2018-10-17T06:56:44.745Z,101568.14
2018-10-17T07:01:37.632Z,101568.98
2018-10-17T07:06:30.574Z,101561.08
2018-10-17T07:11:23.567Z,101557.98
2018-10-17T07:16:18.401Z,101556.31
2018-10-17T07:21:11.041Z,101549.45
2018-10-17T07:26:03.722Z,101560.42
2018-10-17T07:30:56.399Z,101559.03
2018-10-17T07:35:49.267Z,101562.81
2018-10-17T07:40:41.948Z,101554.02
2018-10-17T07:45:34.619Z,101554.73
2018-10-17T07:50:27.338Z,101558.59
2018-10-17T07:55:20.266Z,101552.59
2018-10-17T08:00:13.795Z,101558.25
2018-10-17T08:05:06.468Z,101561.72
2018-10-17T08:10:00.303Z,101565.67
2018-10-17T08:14:53.028Z,101561.77
2018-10-17T08:19:45.730Z,101561.31
2018-10-17T08:24:38.444Z,101570.78
2018-10-17T08:29:31.053Z,101566.58
2018-10-17T08:34:23.794Z,101567.72
2018-10-17T08:39:17.479Z,101560.10
2018-10-17T08:44:10.173Z,101557.41
2018-10-17T08:49:02.812Z,101553.30
2018-10-17T08:53:55.562Z,101552.96
2018-10-17T08:58:48.410Z,101547.94
2018-10-17T09:03:41.129Z,101555.85
2018-10-17T09:08:33.759Z,101559.63
2018-10-17T09:13:26.461Z,101555.82
2018-10-17T09:18:19.212Z,101558.25
2018-10-17T09:23:12.101Z,101563.04
2018-10-17T09:28:05.322Z,101553.36
2018-10-17T09:32:57.962Z,101551.02
2018-10-17T09:37:50.596Z,101553.53
2018-10-17T09:42:43.258Z,101545.37
2018-10-17T09:47:35.894Z,101547.33
2018-10-17T09:52:28.593Z,101546.23
2018-10-17T09:57:21.325Z,101539.36
2018-10-17T10:02:14.058Z,101535.19
2018-10-17T10:07:06.669Z,101536.78
2018-10-17T10:11:59.333Z,101533.95
2018-10-17T10:16:52.017Z,101528.56
2018-10-17T10:21:44.654Z,101525.41
2018-10-17T10:26:37.350Z,101525.25
2018-10-17T10:31:30.054Z,101517.50
2018-10-17T10:36:22.918Z,101508.54
2018-10-17T10:41:15.559Z,101505.94
2018-10-17T10:46:08.407Z,101512.13
2018-10-17T10:51:01.113Z,101508.86
2018-10-17T10:55:53.733Z,101499.70
2018-10-17T11:00:46.386Z,101492.78
2018-10-17T11:05:40.530Z,101487.86
2018-10-17T11:10:33.010Z,101487.34
2018-10-17T11:15:25.769Z,101478.87
2018-10-17T11:20:18.494Z,101480.16
2018-10-17T11:25:11.251Z,101479.79
2018-10-17T11:30:04.796Z,101474.23
2018-10-17T11:34:57.661Z,101466.73
2018-10-17T11:39:50.544Z,101471.64
2018-10-17T11:44:43.291Z,101469.59
2018-10-17T11:49:36.090Z,101463.87
2018-10-17T11:54:28.878Z,101456.14
2018-10-17T11:59:23.616Z,101460.09
2018-10-17T12:04:16.628Z,101453.87
2018-10-17T12:09:09.489Z,101463.97
2018-10-17T12:14:02.287Z,101456.84
2018-10-17T12:18:55.260Z,101453.05
2018-10-17T12:23:47.883Z,101445.03
2018-10-17T12:28:40.665Z,101448.81
2018-10-17T12:33:33.394Z,101438.38
2018-10-17T12:38:26.113Z,101436.16
2018-10-17T12:43:20.227Z,101437.06
2018-10-17T12:48:12.964Z,101425.78
2018-10-17T12:53:06.012Z,101428.48
2018-10-17T12:57:58.507Z,101431.25
2018-10-17T13:02:52.262Z,101426.61
2018-10-17T13:07:45.346Z,101431.51
2018-10-17T13:12:38.133Z,101424.50
2018-10-17T13:17:30.832Z,101424.36
2018-10-17T13:22:23.881Z,101429.11
2018-10-17T13:27:16.668Z,101428.44
2018-10-17T13:32:09.305Z,101430.17
2018-10-17T13:37:02.027Z,101424.25
2018-10-17T13:41:54.720Z,101419.23
2018-10-17T13:46:47.457Z,101410.20
2018-10-17T13:51:40.114Z,101408.58
2018-10-17T13:56:32.750Z,101404.95
2018-10-17T14:01:25.547Z,101408.12
2018-10-17T14:06:18.970Z,101407.56
2018-10-17T14:11:11.537Z,101404.55
2018-10-17T14:16:04.871Z,101404.86
2018-10-17T14:20:57.739Z,101401.88
2018-10-17T14:25:50.331Z,101413.76
2018-10-17T14:30:43.123Z,101410.69
2018-10-17T14:35:35.914Z,101413.77
2018-10-17T14:40:28.666Z,101420.59
2018-10-17T14:45:21.518Z,101421.70
2018-10-17T14:50:14.265Z,101429.85
2018-10-17T14:55:07.438Z,101430.08
2018-10-17T15:00:00.084Z,101426.92
2018-10-17T15:04:52.738Z,101434.47
2018-10-17T15:09:45.429Z,101436.17
2018-10-17T15:14:38.071Z,101431.97
2018-10-17T15:19:30.710Z,101432.92
2018-10-17T15:24:23.415Z,101428.34
2018-10-17T15:29:16.094Z,101434.50
2018-10-17T15:34:08.872Z,101433.32
2018-10-17T15:39:01.614Z,101438.48
2018-10-17T15:43:55.495Z,101438.72
2018-10-17T15:48:48.186Z,101437.89
2018-10-17T15:53:41.209Z,101445.23
2018-10-17T15:58:33.940Z,101450.15
2018-10-17T16:03:26.634Z,101452.80
2018-10-17T16:08:19.299Z,101445.88
2018-10-17T16:13:13.014Z,101452.62
2018-10-17T16:18:06.240Z,101450.58
2018-10-17T16:22:59.214Z,101449.57
2018-10-17T16:27:51.882Z,101456.49
2018-10-17T16:32:44.526Z,101454.45
2018-10-17T16:37:37.821Z,101462.02
2018-10-17T16:42:30.658Z,101456.90
2018-10-17T16:47:23.328Z,101458.59
2018-10-17T16:52:15.981Z,101460.81
2018-10-17T16:57:09.601Z,101472.38
2018-10-17T17:02:02.225Z,101479.77
2018-10-17T17:06:54.929Z,101487.98
2018-10-17T17:11:47.635Z,101489.34
2018-10-17T17:16:40.317Z,101493.45
2018-10-17T17:21:32.986Z,101490.72
2018-10-17T17:26:25.697Z,101499.98
2018-10-17T17:31:18.329Z,101495.06
2018-10-17T17:36:11.096Z,101499.65
2018-10-17T17:41:06.238Z,101497.72
2018-10-17T17:45:58.937Z,101497.38
2018-10-17T17:50:51.642Z,101495.98
2018-10-17T17:55:44.414Z,101495.94
2018-10-17T18:00:37.109Z,101498.92
2018-10-17T18:05:29.799Z,101495.07
2018-10-17T18:10:22.514Z,101500.48
2018-10-17T18:15:15.165Z,101505.86
2018-10-17T18:20:07.857Z,101504.16
2018-10-17T18:25:00.581Z,101501.65
2018-10-17T18:29:53.413Z,101507.05
2018-10-17T18:34:46.035Z,101505.07
2018-10-17T18:39:38.751Z,101502.84
2018-10-17T18:44:31.418Z,101513.12
2018-10-17T18:49:24.217Z,101509.23
2018-10-17T18:54:16.915Z,101510.80
2018-10-17T18:59:09.871Z,101512.39
2018-10-17T19:04:02.545Z,101514.23
2018-10-17T19:08:55.207Z,101517.94
2018-10-17T19:13:47.836Z,101519.20
2018-10-17T19:18:40.515Z,101516.98
2018-10-17T19:23:33.210Z,101521.56
2018-10-17T19:28:25.917Z,101523.97
2018-10-17T19:33:18.601Z,101527.95
2018-10-17T19:38:11.317Z,101534.89
2018-10-17T19:43:04.301Z,101544.83
2018-10-17T19:47:57.129Z,101538.98
2018-10-17T19:52:49.594Z,101546.53
2018-10-17T19:57:42.345Z,101540.17
2018-10-17T20:02:35.004Z,101546.11
2018-10-17T20:07:27.794Z,101548.14
2018-10-17T20:12:20.415Z,101547.67
2018-10-17T20:17:13.161Z,101546.45
2018-10-17T20:22:07.639Z,101543.89
2018-10-17T20:27:00.347Z,101542.91
2018-10-17T20:31:52.996Z,101545.97
2018-10-17T20:36:45.550Z,101537.95
2018-10-17T20:41:38.385Z,101544.63
2018-10-17T20:46:32.505Z,101538.27
2018-10-17T20:51:26.823Z,101538.39
2018-10-17T20:56:19.987Z,101531.48
2018-10-17T21:01:12.618Z,101530.23
2018-10-17T21:06:05.323Z,101528.72
2018-10-17T21:10:57.984Z,101531.73
2018-10-17T21:15:50.578Z,101534.36
2018-10-17T21:20:43.299Z,101536.60
2018-10-17T21:25:35.929Z,101530.00
2018-10-17T21:30:28.678Z,101530.58
2018-10-17T21:35:21.293Z,101539.48
2018-10-17T21:40:13.909Z,101532.91
2018-10-17T21:45:06.769Z,101529.47
2018-10-17T21:49:59.405Z,101528.41
2018-10-17T21:54:53.085Z,101536.63
2018-10-17T21:59:45.712Z,101532.15
2018-10-17T22:04:38.386Z,101533.71
2018-10-17T22:09:31.077Z,101539.40
2018-10-17T22:14:23.761Z,101530.41
2018-10-17T22:24:15.614Z,101529.89
2018-10-17T22:29:08.278Z,101532.18
2018-10-17T22:34:00.928Z,101536.09
2018-10-17T22:38:53.558Z,101539.99
2018-10-17T22:43:46.169Z,101541.81
2018-10-17T22:48:38.864Z,101545.64
2018-10-17T22:53:31.486Z,101534.38
2018-10-17T22:58:24.914Z,101546.76
2018-10-17T23:03:17.793Z,101549.03
2018-10-17T23:08:10.575Z,101541.03
2018-10-17T23:13:03.410Z,101542.80
2018-10-17T23:17:56.055Z,101530.18
2018-10-17T23:22:48.661Z,101527.56
2018-10-17T23:27:41.327Z,101532.37
2018-10-17T23:32:33.969Z,101532.01
2018-10-17T23:37:26.590Z,101526.30
2018-10-17T23:42:19.188Z,101527.31
2018-10-17T23:47:11.776Z,101524.98
2018-10-17T23:52:04.740Z,101517.80
2018-10-17T23:56:57.296Z,101515.55
